• Join FlightAware (Why Join?)
  • Login
  • US Flag 
05:22AM EDT


 

Airport Tracker/Info


-or-


 

Live Flight TrackerFlight Track Log ✈ CES5862 ✈ 09-Sep-2013 ✈ ZUJZ / JZH - ZUUU / CTU

Flight Track Log - Related Links

Times and Time Zones

All times are in EDT time to prevent confusion due to time zone crossing. See the CES5862 flight status page for this flight to view local times or setup timezone preferences in your user account.

Time Position Orientation Groundspeed Altitude Reporting Facility
EDT Latitude Longitude Course Direction KTS MPH feet Rate Location/Type
05:13AM 32.5560 104.1770 156° South 390 449 24,600  Level FlightAware
05:14AM 32.5040 104.2030 157° South 389 448 24,600  Level FlightAware
05:15AM 32.4380 104.2270 163° South 385 443 24,600  Level FlightAware
05:15AM 32.3750 104.2450 166° South 389 448 24,600  Level FlightAware
05:16AM 32.3140 104.2630 166° South 392 451 24,600  Level FlightAware
05:16AM 32.2540 104.2790 167° South 392 451 24,600  Level FlightAware
05:17AM 32.1910 104.2900 172° South 386 444 24,600  Level FlightAware
05:18AM 32.1260 104.2940 177° South 391 450 24,600  Level FlightAware
05:18AM 32.0370 104.2920 181° South 395 455 24,600  Level FlightAware
05:19AM 31.9720 104.2840 186° South 396 456 24,600  Level FlightAware
05:20AM 31.8980 104.2830 181° South 397 457 24,600  Level FlightAware
05:20AM 31.8330 104.2860 178° South 396 456 24,600  Level FlightAware
05:21AM 31.7660 104.2900 177° South 394 453 24,600  Level FlightAware
05:21AM 31.7080 104.2930 177° South 393 452 24,600  Level FlightAware
05:22AM 31.6410 104.2960 178° South 392 451 24,600 -180 Level FlightAware
05:22AM 31.5820 104.2980 178° South 389 448 24,400 -840 Descending FlightAware
05:23AM 31.5170 104.3020 177° South 378 435 23,700 -1,140 Descending FlightAware
05:24AM 31.4550 104.3050 178° South 378 435 23,100 -1,020 Descending FlightAware
05:24AM 31.3910 104.3080 178° South 380 437 22,500 -1,020 Descending FlightAware
05:25AM 31.3360 104.3100 178° South 365 420 22,000 -1,080 Descending FlightAware
05:25AM 31.3210 104.3090 183° South 356 410 21,800 -1,020 Descending FlightAware
05:25AM 31.2980 104.2990 200° South 349 402 21,600 -900 Descending FlightAware
05:25AM 31.2820 104.2860 215° Southwest 347 399 21,400 -1,080 Descending FlightAware
05:26AM 31.2410 104.2460 220° Southwest 345 397 20,800 -1,080 Descending FlightAware
05:27AM 31.1950 104.2020 219° Southwest 344 396 20,200 -1,020 Descending FlightAware
05:27AM 31.1510 104.1610 219° Southwest 342 394 19,600 -1,020 Descending FlightAware
05:28AM 31.1070 104.1190 219° Southwest 343 395 19,000 -960 Descending FlightAware
05:28AM 31.0660 104.0810 218° Southwest 342 394 18,500 -1,020 Descending FlightAware
05:29AM 31.0220 104.0390 219° Southwest 337 388 17,900 -1,200 Descending FlightAware
05:30AM 30.9800 103.9990 219° Southwest 338 389 17,100 -1,860 Descending FlightAware
05:30AM 30.9330 103.9550 219° Southwest 358 412 15,700 -2,220 Descending FlightAware
05:31AM 30.8920 103.9170 219° Southwest 364 419 14,600 -2,280 Descending FlightAware
05:31AM 30.8440 103.8710 219° Southwest 364 419 13,200 -2,340 Descending FlightAware
05:32AM 30.7970 103.8260 219° Southwest 362 417 11,800 -2,220 Descending FlightAware
05:32AM 30.7510 103.7840 218° Southwest 352 405 10,600 -1,440 Descending FlightAware
05:33AM 30.7110 103.7450 220° Southwest 322 371 10,200 -660 Descending FlightAware
05:34AM 30.6730 103.7100 218° Southwest 294 338 9,900 -480 Descending FlightAware
05:34AM 30.6550 103.6970 212° Southwest 283 326 9,800 -540 Descending FlightAware
05:34AM 30.6440 103.6950 189° South 278 320 9,700 -900 Descending FlightAware
05:34AM 30.6110 103.7030 168° South 261 300 9,300 -960 Descending FlightAware
05:35AM 30.5970 103.7100 157° South 259 298 9,100 -1,140 Descending FlightAware
05:35AM 30.5750 103.7210 157° South 254 292 8,700 -1,380 Descending FlightAware
05:35AM 30.5580 103.7280 160° South 255 293 8,300 -1,500 Descending FlightAware
05:35AM 30.5480 103.7290 175° South 256 295 8,100 -1,500 Descending FlightAware
05:36AM 30.5260 103.7250 189° South 257 296 7,600 -1,380 Descending FlightAware
05:36AM 30.5010 103.7190 192° South 254 292 7,200 -1,200 Descending FlightAware
05:36AM 30.4760 103.7160 186° South 242 278 6,800 -960 Descending FlightAware
05:36AM 30.4710 103.7170 170° South 238 274 6,800 -540 Level FlightAware
05:37AM 30.4650 103.7210 150° Southeast 233 268 6,700 -1,140 Descending FlightAware
05:37AM 30.4580 103.7290 135° Southeast 226 260 6,500 -1,080 Descending FlightAware
05:37AM 30.4460 103.7470 128° Southeast 211 243 6,200 -840 Descending FlightAware
05:37AM 30.4390 103.7630 117° Southeast 196 226 6,000 -720 Descending FlightAware
05:38AM 30.4360 103.7720 111° Southeast 189 217 5,900 -720 Descending FlightAware
05:38AM 30.4280 103.7960 111° Southeast 178 205 5,600 -840 Descending FlightAware
05:38AM 30.4230 103.8140 108° East 179 206 5,300 -900 Descending FlightAware
05:39AM 30.4180 103.8350 105° East 179 206 5,000 -1,020 Descending FlightAware
05:39AM 30.4250 103.8520 64° Northeast 178 205 4,600 -1,320 Descending FlightAware
05:39AM 30.4300 103.8620 60° Northeast 175 201 4,300 -1,200 Descending FlightAware
05:40AM 30.4410 103.8800 55° Northeast 164 189 3,900 -720 Descending FlightAware
05:40AM 30.4470 103.8870 45° Northeast 158 182 3,900 -360 Level FlightAware
05:40AM 30.4530 103.8890 16° North 158 182 3,800 -600 Descending FlightAware
05:40AM 30.4680 103.8960 22° Northeast 153 176 3,600 -780 Descending FlightAware
05:41AM 30.4800 103.9010 20° North 148 170 3,300 -780 Descending FlightAware
05:41AM 30.4940 103.9080 23° Northeast 150 173 3,100 -720 Descending FlightAware
05:41AM 30.5080 103.9140 20° North 154 177 2,800 -900 Descending FlightAware
05:42AM 30.5220 103.9210 23° Northeast 153 176 2,500 -900 Descending FlightAware
05:42AM 30.5310 103.9250 21° North 152 175 2,300 -840 Descending FlightAware
05:42AM 30.5450 103.9310 20° North 148 170 2,000 -780 Descending FlightAware
05:43AM 30.5580 103.9370 22° Northeast 148 170 1,800 -600 Descending FlightAware
05:43AM 30.5730 103.9440 22° Northeast 125 144 -4,500 Descending FlightAware
05:43AM 30.5770 103.9460 23° Northeast 80 92  Level FlightAware